Terminal Aerodrome Forecast
Issued by NWS Portland, OR

Home | Current Version | Previous Version | Text Only | Print | Product List | Glossary On
Versions: 1 2 3 4 5 6 7 8 9 10 11 12 13 14 15 16 17 18 19 20 21 22 23 24 25 26 27 28 29 30 31 32 33 34 35 36 37 38 39 40 41 42 43 44 45 46 47 48
000
FTUS46 KPQR 070920 AAB
TAFSLE
TAF AMD
KSLE 070920Z 0709/0806 00000KT P6SM OVC009
     FM071200 00000KT 1/2SM FZFG BKN002
     FM071600 01007KT 3SM BR BKN006
     FM071730 01010KT P6SM BKN012
     FM071900 01012KT P6SM SCT015=

USA.gov is the U.S. government's official web portal to all federal, state and local government web resources and services.